Time;durP1;ratioP1;P1;durP2;ratioP2;P2;SDS_P1;SDS_P2;PMS_P1;PMS_P2;Temp;Humidity;BMP_temperature;BMP_pressure;BME280_temperature;BME280_humidity;BME280_pressure;Samples;Min_cycle;Max_cycle;Signal;HPM_P1;HPM_P2
2022/04/27 00:00:15;;;;;;;;;;;;;;;;;;1904166;28;7135;-68
2022/04/27 00:01:13;;;;;;;;;;;;;;;;;;1904284;28;7041;-70
2022/04/27 00:02:11;;;;;;;;;;;;;;;;;;1904354;28;7064;-69
2022/04/27 00:03:08;;;;;;;;;;;;;;;;;;1903838;28;7026;-68
2022/04/27 00:04:06;;;;;;;;;;;;;;;;;;1903907;28;7010;-68
2022/04/27 00:05:03;;;;;;;;;;;;;;;;;;1903691;28;7046;-67
2022/04/27 00:06:01;;;;;;;;;;;;;;;;;;1904108;28;7199;-70
2022/04/27 00:06:58;;;;;;;;;;;;;;;;;;1911564;28;7042;-70
2022/04/27 00:07:56;;;;;;;;;;;;;;;;;;1905476;28;7066;-70
2022/04/27 00:08:53;;;;;;;;;;;;;;;;;;1904337;28;7009;-69
2022/04/27 00:09:51;;;;;;;;;;;;;;;;;;1903574;28;7116;-69
2022/04/27 00:10:48;;;;;;;;;;;;;;;;;;1904092;28;7137;-68
2022/04/27 00:11:46;;;;;;;;;;;;;;;;;;1903484;28;8337;-67
2022/04/27 00:12:43;;;;;;;;;;;;;;;;;;1903958;28;7419;-68
2022/04/27 00:13:40;;;;;;;;;;;;;;;;;;1903941;28;7009;-68
2022/04/27 00:14:39;;;;;;;;;;;;;;;;;;1904341;28;7029;-68
2022/04/27 00:15:36;;;;;;;;;;;;;;;;;;1904755;28;7331;-67
2022/04/27 00:16:34;;;;;;;;;;;;;;;;;;1904074;28;7041;-69
2022/04/27 00:17:32;;;;;;;;;;;;;;;;;;1903896;28;7113;-69
2022/04/27 00:18:29;;;;;;;;;;;;;;;;;;1903811;28;8102;-69
2022/04/27 00:19:27;;;;;;;;;;;;;;;;;;1903946;28;7009;-68
2022/04/27 00:20:25;;;;;;;;;;;;;;;;;;1904100;28;7077;-68
2022/04/27 00:21:22;;;;;;;;;;;;;;;;;;1903751;28;7014;-68
2022/04/27 00:22:19;;;;;;;;;;;;;;;;;;1904781;28;7013;-69
2022/04/27 00:23:17;;;;;;;;;;;;;;;;;;1903964;28;7328;-69
2022/04/27 00:24:14;;;;;;;;;;;;;;;;;;1903643;28;7009;-68
2022/04/27 00:25:12;;;;;;;;;;;;;;;;;;1904112;28;7128;-71
2022/04/27 00:26:09;;;;;;;;;;;;;;;;;;1904205;28;7013;-67
2022/04/27 00:27:06;;;;;;;;;;;;;;;;;;1903438;28;7109;-69
2022/04/27 00:28:04;;;;;;;;;;;;;;;;;;1902632;28;7304;-69
2022/04/27 00:29:02;;;;;;;;;;;;;;;;;;1897457;28;7114;-69
2022/04/27 00:30:00;;;;;;;;;;;;;;;;;;1904040;28;7112;-68
2022/04/27 00:30:57;;;;;;;;;;;;;;;;;;1904286;28;7113;-67
2022/04/27 00:31:54;;;;;;;;;;;;;;;;;;1903059;28;7017;-68
2022/04/27 00:32:52;;;;;;;;;;;;;;;;;;1903435;28;7038;-68
2022/04/27 00:33:49;;;;;;;;;;;;;;;;;;1905159;28;7014;-67
2022/04/27 00:34:47;;;;;;;;;;;;;;;;;;1905009;28;7088;-72
2022/04/27 00:35:44;;;;;;;;;;;;;;;;;;1906059;28;7049;-68
2022/04/27 00:36:42;;;;;;;;;;;;;;;;;;1902663;28;7130;-68
2022/04/27 00:37:39;;;;;;;;;;;;;;;;;;1905149;28;7163;-68
2022/04/27 00:38:36;;;;;;;;;;;;;;;;;;1905298;28;7010;-68
2022/04/27 00:39:34;;;;;;;;;;;;;;;;;;1904996;28;7096;-69
2022/04/27 00:40:32;;;;;;;;;;;;;;;;;;1904885;28;7038;-68
2022/04/27 00:41:29;;;;;;;;;;;;;;;;;;1905218;28;7315;-70
2022/04/27 00:42:26;;;;;;;;;;;;;;;;;;1905433;28;7010;-70
2022/04/27 00:43:34;;;;;;;;;;;;;;;;;;1905526;28;7146;-70
2022/04/27 00:44:32;;;;;;;;;;;;;;;;;;1905640;28;7348;-66
2022/04/27 00:45:30;;;;;;;;;;;;;;;;;;1905920;28;7096;-68
2022/04/27 00:46:28;;;;;;;;;;;;;;;;;;1905341;28;7147;-71
2022/04/27 00:47:26;;;;;;;;;;;;;;;;;;1904786;28;7018;-70
2022/04/27 00:48:24;;;;;;;;;;;;;;;;;;1905343;28;7030;-70
2022/04/27 00:49:21;;;;;;;;;;;;;;;;;;1905447;28;7001;-68
2022/04/27 00:50:19;;;;;;;;;;;;;;;;;;1905343;28;7006;-68
2022/04/27 00:51:19;;;;;;;;;;;;;;;;;;1905346;28;7038;-69
2022/04/27 00:52:17;;;;;;;;;;;;;;;;;;1905491;28;7005;-68
2022/04/27 00:53:15;;;;;;;;;;;;;;;;;;1904570;28;8219;-69
2022/04/27 00:54:13;;;;;;;;;;;;;;;;;;1904453;28;7200;-69
2022/04/27 00:55:10;;;;;;;;;;;;;;;;;;1904205;28;7002;-68
2022/04/27 00:56:09;;;;;;;;;;;;;;;;;;1904832;28;7088;-67
2022/04/27 00:57:12;;;;;;;;;;;;;;;;;;1897383;28;7297;-70
2022/04/27 00:58:12;;;;;;;;;;;;;;;;;;1893692;28;7092;-70
2022/04/27 00:59:10;;;;;;;;;;;;;;;;;;1897850;28;7005;-70
2022/04/27 01:00:07;;;;;;;;;;;;;;;;;;1890334;28;7010;-71
2022/04/27 01:01:05;;;;;;;;;;;;;;;;;;1897350;28;8523;-68
2022/04/27 01:02:04;;;;;;;;;;;;;;;;;;1897818;28;7009;-69
2022/04/27 01:03:02;;;;;;;;;;;;;;;;;;1897326;28;7002;-68
2022/04/27 01:04:07;;;;;;;;;;;;;;;;;;1896885;28;7120;-68
2022/04/27 01:05:09;;;;;;;;;;;;;;;;;;1897560;28;7054;-68
2022/04/27 01:06:06;;;;;;;;;;;;;;;;;;1896697;28;7025;-69
2022/04/27 01:07:05;;;;;;;;;;;;;;;;;;1898120;28;7010;-68
2022/04/27 01:08:03;;;;;;;;;;;;;;;;;;1897973;28;7320;-67
2022/04/27 01:09:00;;;;;;;;;;;;;;;;;;1897559;28;7050;-69
2022/04/27 01:09:58;;;;;;;;;;;;;;;;;;1897694;28;7025;-71
2022/04/27 01:10:59;;;;;;;;;;;;;;;;;;1898172;28;7469;-69
2022/04/27 01:11:57;;;;;;;;;;;;;;;;;;1897877;28;7142;-68
2022/04/27 01:12:56;;;;;;;;;;;;;;;;;;1896984;28;7097;-67
2022/04/27 01:13:54;;;;;;;;;;;;;;;;;;1889822;28;7139;-69
2022/04/27 01:14:51;;;;;;;;;;;;;;;;;;1890626;28;7009;-68
2022/04/27 01:15:49;;;;;;;;;;;;;;;;;;1897494;28;7013;-68
2022/04/27 01:16:50;;;;;;;;;;;;;;;;;;1896869;28;7010;-69
2022/04/27 01:17:47;;;;;;;;;;;;;;;;;;1897398;28;7010;-68
2022/04/27 01:18:45;;;;;;;;;;;;;;;;;;1897341;28;7006;-69
2022/04/27 01:19:42;;;;;;;;;;;;;;;;;;1897746;28;7009;-69
2022/04/27 01:20:44;;;;;;;;;;;;;;;;;;1896376;28;7014;-68
2022/04/27 01:21:42;;;;;;;;;;;;;;;;;;1897684;28;7009;-68
2022/04/27 01:22:39;;;;;;;;;;;;;;;;;;1897587;28;7097;-71
2022/04/27 01:23:37;;;;;;;;;;;;;;;;;;1897676;28;7009;-71
2022/04/27 01:24:34;;;;;;;;;;;;;;;;;;1897537;28;7125;-68
2022/04/27 01:25:50;;;;;;;;;;;;;;;;;;1897642;28;7009;-68
2022/04/27 01:26:49;;;;;;;;;;;;;;;;;;1897238;28;7316;-66
2022/04/27 01:27:46;;;;;;;;;;;;;;;;;;1892493;28;7304;-72
2022/04/27 01:28:45;;;;;;;;;;;;;;;;;;1896619;28;8885;-70
2022/04/27 01:29:42;;;;;;;;;;;;;;;;;;1897807;28;8048;-68
2022/04/27 01:30:39;;;;;;;;;;;;;;;;;;1897255;28;7006;-70
2022/04/27 01:31:37;;;;;;;;;;;;;;;;;;1897933;28;8217;-69
2022/04/27 01:32:34;;;;;;;;;;;;;;;;;;1897690;28;7010;-68
2022/04/27 01:33:35;;;;;;;;;;;;;;;;;;1896356;28;7013;-70
2022/04/27 01:34:33;;;;;;;;;;;;;;;;;;1896666;28;7010;-70
2022/04/27 01:35:31;;;;;;;;;;;;;;;;;;1897287;28;7014;-69
2022/04/27 01:36:28;;;;;;;;;;;;;;;;;;1897745;28;7042;-69
2022/04/27 01:38:43;;;;;;;;;;;;;;;;;;1897129;28;7044;-67
2022/04/27 01:39:40;;;;;;;;;;;;;;;;;;1897445;28;7116;-70
2022/04/27 01:40:38;;;;;;;;;;;;;;;;;;1897619;28;7030;-67
2022/04/27 01:41:36;;;;;;;;;;;;;;;;;;1897278;28;7006;-70
2022/04/27 01:42:34;;;;;;;;;;;;;;;;;;1896474;28;7057;-69
2022/04/27 01:43:33;;;;;;;;;;;;;;;;;;1897532;28;7038;-68
2022/04/27 01:44:30;;;;;;;;;;;;;;;;;;1903575;28;7062;-69
2022/04/27 01:45:29;;;;;;;;;;;;;;;;;;1903794;28;7006;-67
2022/04/27 01:46:27;;;;;;;;;;;;;;;;;;1897912;28;7037;-69
2022/04/27 01:47:25;;;;;;;;;;;;;;;;;;1897860;28;7002;-69
2022/04/27 01:48:22;;;;;;;;;;;;;;;;;;1897848;28;7029;-68
2022/04/27 01:49:20;;;;;;;;;;;;;;;;;;1897283;28;8048;-69
2022/04/27 01:50:17;;;;;;;;;;;;;;;;;;1897365;28;7093;-69
2022/04/27 01:51:15;;;;;;;;;;;;;;;;;;1897896;28;7013;-68
2022/04/27 01:54:46;;;;;;;;;;;;;;;;;;1866921;29;7046;-68
2022/04/27 01:55:43;;;;;;;;;;;;;;;;;;1889047;28;7006;-70
2022/04/27 01:56:41;;;;;;;;;;;;;;;;;;1901302;28;7124;-68
2022/04/27 01:57:39;;;;;;;;;;;;;;;;;;1904934;28;7041;-67
2022/04/27 01:58:36;;;;;;;;;;;;;;;;;;1904828;28;7025;-72
2022/04/27 01:59:34;;;;;;;;;;;;;;;;;;1905412;28;7010;-68
2022/04/27 02:00:33;;;;;;;;;;;;;;;;;;1905209;28;7009;-69
2022/04/27 02:01:32;;;;;;;;;;;;;;;;;;1904990;28;7208;-69
2022/04/27 02:02:30;;;;;;;;;;;;;;;;;;1904525;28;7104;-69
2022/04/27 02:03:27;;;;;;;;;;;;;;;;;;1904956;28;7113;-68
2022/04/27 02:04:25;;;;;;;;;;;;;;;;;;1904393;28;7038;-69
2022/04/27 02:05:23;;;;;;;;;;;;;;;;;;1904262;28;7046;-70
2022/04/27 02:06:20;;;;;;;;;;;;;;;;;;1904555;28;7006;-70
2022/04/27 02:07:17;;;;;;;;;;;;;;;;;;1905270;28;8101;-66
2022/04/27 02:08:15;;;;;;;;;;;;;;;;;;1904816;28;7062;-67
2022/04/27 02:09:13;;;;;;;;;;;;;;;;;;1904870;28;7038;-69
2022/04/27 02:10:10;;;;;;;;;;;;;;;;;;1904684;28;7051;-70
2022/04/27 02:11:08;;;;;;;;;;;;;;;;;;1904628;28;7002;-71
2022/04/27 02:12:05;;;;;;;;;;;;;;;;;;1896850;28;8118;-68
2022/04/27 02:13:04;;;;;;;;;;;;;;;;;;1896618;28;7179;-68
2022/04/27 02:14:01;;;;;;;;;;;;;;;;;;1904057;28;7320;-66
2022/04/27 02:14:59;;;;;;;;;;;;;;;;;;1904557;28;7148;-71
2022/04/27 02:15:56;;;;;;;;;;;;;;;;;;1904918;28;7105;-69
2022/04/27 02:16:54;;;;;;;;;;;;;;;;;;1904872;28;7116;-68
2022/04/27 02:17:51;;;;;;;;;;;;;;;;;;1904887;28;7071;-68
2022/04/27 02:18:48;;;;;;;;;;;;;;;;;;1904406;28;7005;-71
2022/04/27 02:19:46;;;;;;;;;;;;;;;;;;1910950;28;7199;-70
2022/04/27 02:20:43;;;;;;;;;;;;;;;;;;1911673;28;7676;-71
2022/04/27 02:21:41;;;;;;;;;;;;;;;;;;1905769;28;7009;-67
2022/04/27 02:22:39;;;;;;;;;;;;;;;;;;1904143;28;7034;-71
2022/04/27 02:23:37;;;;;;;;;;;;;;;;;;1904567;28;7013;-70
2022/04/27 02:24:34;;;;;;;;;;;;;;;;;;1896521;28;7173;-69
2022/04/27 02:25:32;;;;;;;;;;;;;;;;;;1896123;28;7245;-70
2022/04/27 02:26:30;;;;;;;;;;;;;;;;;;1903537;28;7009;-69
2022/04/27 02:27:27;;;;;;;;;;;;;;;;;;1904464;28;7023;-68
2022/04/27 02:28:25;;;;;;;;;;;;;;;;;;1904694;28;7006;-69
2022/04/27 02:29:23;;;;;;;;;;;;;;;;;;1904672;28;7313;-70
2022/04/27 02:30:20;;;;;;;;;;;;;;;;;;1904190;28;7002;-68
2022/04/27 02:31:17;;;;;;;;;;;;;;;;;;1904594;28;7021;-69
2022/04/27 02:32:15;;;;;;;;;;;;;;;;;;1904382;28;7109;-68
2022/04/27 02:33:12;;;;;;;;;;;;;;;;;;1904065;28;7369;-67
2022/04/27 02:34:10;;;;;;;;;;;;;;;;;;1904659;28;7018;-69
2022/04/27 02:35:08;;;;;;;;;;;;;;;;;;1904609;28;7092;-68
2022/04/27 02:36:06;;;;;;;;;;;;;;;;;;1904486;28;7117;-69
2022/04/27 02:37:05;;;;;;;;;;;;;;;;;;1904396;28;7005;-68
2022/04/27 02:38:03;;;;;;;;;;;;;;;;;;1904202;28;7014;-68
2022/04/27 02:39:00;;;;;;;;;;;;;;;;;;1904049;28;7009;-68
2022/04/27 02:39:58;;;;;;;;;;;;;;;;;;1904234;28;7009;-68
2022/04/27 02:40:56;;;;;;;;;;;;;;;;;;1904803;28;7010;-68
2022/04/27 02:41:53;;;;;;;;;;;;;;;;;;1903593;28;7396;-70
2022/04/27 02:42:52;;;;;;;;;;;;;;;;;;1904377;28;7009;-67
2022/04/27 02:43:49;;;;;;;;;;;;;;;;;;1904639;28;7005;-67
2022/04/27 02:44:47;;;;;;;;;;;;;;;;;;1904488;28;7006;-69
2022/04/27 02:45:45;;;;;;;;;;;;;;;;;;1904344;28;7116;-70
2022/04/27 02:46:42;;;;;;;;;;;;;;;;;;1904471;28;7021;-71
2022/04/27 02:47:40;;;;;;;;;;;;;;;;;;1904857;28;7009;-68
2022/04/27 02:51:48;;;;;;;;;;;;;;;;;;1904359;28;7042;-70
2022/04/27 02:52:26;;;;;;;;;;;;;;;;;;1903917;28;7149;-68
2022/04/27 02:53:23;;;;;;;;;;;;;;;;;;1904304;28;7089;-67
2022/04/27 02:54:22;;;;;;;;;;;;;;;;;;1904510;28;7002;-68
2022/04/27 02:55:22;;;;;;;;;;;;;;;;;;1904756;28;7108;-68
2022/04/27 02:56:20;;;;;;;;;;;;;;;;;;1904228;28;7005;-69
2022/04/27 02:57:17;;;;;;;;;;;;;;;;;;1902810;28;8111;-67
2022/04/27 02:58:15;;;;;;;;;;;;;;;;;;1903858;28;8182;-69
2022/04/27 02:59:12;;;;;;;;;;;;;;;;;;1903592;28;7005;-66
2022/04/27 03:00:10;;;;;;;;;;;;;;;;;;1904319;28;7116;-69
2022/04/27 03:01:07;;;;;;;;;;;;;;;;;;1904110;28;7033;-69
2022/04/27 03:02:05;;;;;;;;;;;;;;;;;;1903530;28;7153;-69
2022/04/27 03:03:03;;;;;;;;;;;;;;;;;;1904460;28;7088;-68
2022/04/27 03:04:01;;;;;;;;;;;;;;;;;;1904160;28;7010;-67
2022/04/27 03:05:00;;;;;;;;;;;;;;;;;;1904612;28;8034;-67
2022/04/27 03:05:57;;;;;;;;;;;;;;;;;;1904452;28;7010;-70
2022/04/27 03:06:54;;;;;;;;;;;;;;;;;;1903788;28;7005;-69
2022/04/27 03:07:52;;;;;;;;;;;;;;;;;;1904759;28;7010;-69
2022/04/27 03:08:49;;;;;;;;;;;;;;;;;;1902812;28;8072;-69
2022/04/27 03:09:47;;;;;;;;;;;;;;;;;;1904874;28;7050;-68
2022/04/27 03:10:47;;;;;;;;;;;;;;;;;;1904252;28;7121;-69
2022/04/27 03:11:44;;;;;;;;;;;;;;;;;;1904013;28;7116;-68
2022/04/27 03:12:42;;;;;;;;;;;;;;;;;;1904356;28;7013;-66
2022/04/27 03:13:39;;;;;;;;;;;;;;;;;;1904372;28;8051;-69
2022/04/27 03:14:36;;;;;;;;;;;;;;;;;;1903386;28;7518;-70
2022/04/27 03:15:34;;;;;;;;;;;;;;;;;;1903085;28;7009;-70
2022/04/27 03:16:32;;;;;;;;;;;;;;;;;;1904625;28;7165;-68
2022/04/27 03:17:29;;;;;;;;;;;;;;;;;;1904130;28;7006;-68
2022/04/27 03:18:27;;;;;;;;;;;;;;;;;;1904470;28;7435;-68
2022/04/27 03:19:24;;;;;;;;;;;;;;;;;;1904290;28;7013;-68
2022/04/27 03:20:22;;;;;;;;;;;;;;;;;;1904384;28;7096;-68
2022/04/27 03:21:19;;;;;;;;;;;;;;;;;;1904757;28;7480;-67
2022/04/27 03:22:17;;;;;;;;;;;;;;;;;;1904165;28;7010;-69
2022/04/27 03:23:15;;;;;;;;;;;;;;;;;;1905226;28;7328;-68
2022/04/27 03:24:12;;;;;;;;;;;;;;;;;;1904628;28;7030;-68
2022/04/27 03:25:09;;;;;;;;;;;;;;;;;;1904406;28;7006;-68
2022/04/27 03:26:07;;;;;;;;;;;;;;;;;;1904227;28;8060;-68
2022/04/27 03:27:05;;;;;;;;;;;;;;;;;;1904083;28;7054;-67
2022/04/27 03:28:03;;;;;;;;;;;;;;;;;;1904103;28;7029;-71
2022/04/27 03:29:00;;;;;;;;;;;;;;;;;;1904234;28;7372;-70
2022/04/27 03:29:57;;;;;;;;;;;;;;;;;;1904983;28;7034;-69
2022/04/27 03:30:55;;;;;;;;;;;;;;;;;;1904645;28;7093;-68
2022/04/27 03:31:52;;;;;;;;;;;;;;;;;;1904348;28;7005;-68
2022/04/27 03:32:50;;;;;;;;;;;;;;;;;;1904102;28;7014;-69
2022/04/27 03:33:47;;;;;;;;;;;;;;;;;;1904098;28;7005;-69
2022/04/27 03:34:46;;;;;;;;;;;;;;;;;;1904013;28;7113;-69
2022/04/27 03:35:44;;;;;;;;;;;;;;;;;;1903909;28;8101;-70
2022/04/27 03:36:42;;;;;;;;;;;;;;;;;;1904606;28;7096;-70
2022/04/27 03:37:39;;;;;;;;;;;;;;;;;;1905033;28;7017;-70
2022/04/27 03:38:38;;;;;;;;;;;;;;;;;;1903853;28;7100;-67
2022/04/27 03:39:35;;;;;;;;;;;;;;;;;;1904387;28;7006;-69
2022/04/27 03:40:41;;;;;;;;;;;;;;;;;;1895813;28;7101;-70
2022/04/27 03:41:39;;;;;;;;;;;;;;;;;;1896100;28;7045;-67
2022/04/27 03:42:36;;;;;;;;;;;;;;;;;;1895860;28;7038;-70
2022/04/27 03:43:33;;;;;;;;;;;;;;;;;;1896249;28;7312;-70
2022/04/27 03:44:31;;;;;;;;;;;;;;;;;;1903427;28;7025;-67
2022/04/27 03:45:29;;;;;;;;;;;;;;;;;;1904264;28;7014;-67
2022/04/27 03:46:31;;;;;;;;;;;;;;;;;;1903990;28;7021;-70
2022/04/27 03:47:49;;;;;;;;;;;;;;;;;;1904343;28;7010;-69
2022/04/27 03:48:46;;;;;;;;;;;;;;;;;;1896611;28;7092;-70
2022/04/27 03:49:44;;;;;;;;;;;;;;;;;;1896316;28;7009;-68
2022/04/27 03:50:41;;;;;;;;;;;;;;;;;;1902550;28;7042;-70
2022/04/27 03:51:38;;;;;;;;;;;;;;;;;;1904182;28;7026;-69
2022/04/27 03:52:36;;;;;;;;;;;;;;;;;;1903734;28;7042;-68
2022/04/27 03:53:33;;;;;;;;;;;;;;;;;;1904436;28;7138;-69
2022/04/27 03:54:31;;;;;;;;;;;;;;;;;;1903442;28;7025;-67
2022/04/27 03:55:33;;;;;;;;;;;;;;;;;;1902852;28;7093;-67
2022/04/27 03:56:30;;;;;;;;;;;;;;;;;;1904197;28;7013;-69
2022/04/27 03:57:27;;;;;;;;;;;;;;;;;;1904127;28;7010;-70
2022/04/27 03:58:25;;;;;;;;;;;;;;;;;;1896115;28;8375;-70
2022/04/27 03:59:22;;;;;;;;;;;;;;;;;;1895223;28;7142;-68
2022/04/27 04:00:20;;;;;;;;;;;;;;;;;;1902935;28;7038;-70
2022/04/27 04:01:18;;;;;;;;;;;;;;;;;;1904623;28;7132;-69
2022/04/27 04:02:15;;;;;;;;;;;;;;;;;;1911494;28;7120;-68
2022/04/27 04:03:13;;;;;;;;;;;;;;;;;;1910237;28;7009;-70
2022/04/27 04:04:15;;;;;;;;;;;;;;;;;;1903844;28;7009;-67
2022/04/27 04:05:13;;;;;;;;;;;;;;;;;;1903466;28;7049;-70
2022/04/27 04:06:10;;;;;;;;;;;;;;;;;;1903677;28;7010;-69
2022/04/27 04:07:07;;;;;;;;;;;;;;;;;;1903728;28;7346;-69
2022/04/27 04:08:06;;;;;;;;;;;;;;;;;;1902770;28;7116;-70
2022/04/27 04:09:03;;;;;;;;;;;;;;;;;;1906140;28;8038;-69
2022/04/27 04:10:01;;;;;;;;;;;;;;;;;;1905844;28;7001;-69
2022/04/27 04:10:59;;;;;;;;;;;;;;;;;;1906070;28;7088;-70
2022/04/27 04:11:56;;;;;;;;;;;;;;;;;;1905463;28;7295;-69
2022/04/27 04:12:53;;;;;;;;;;;;;;;;;;1905990;28;8100;-68
2022/04/27 04:13:51;;;;;;;;;;;;;;;;;;1905301;28;7046;-67
2022/04/27 04:14:48;;;;;;;;;;;;;;;;;;1905817;28;7002;-70
2022/04/27 04:15:46;;;;;;;;;;;;;;;;;;1905784;28;7026;-67
2022/04/27 04:16:43;;;;;;;;;;;;;;;;;;1905614;28;7081;-67
2022/04/27 04:17:44;;;;;;;;;;;;;;;;;;1905216;28;7320;-68
2022/04/27 04:18:42;;;;;;;;;;;;;;;;;;1905231;28;7092;-69
2022/04/27 04:19:39;;;;;;;;;;;;;;;;;;1905452;28;7069;-69
2022/04/27 04:20:37;;;;;;;;;;;;;;;;;;1905844;28;7232;-68
2022/04/27 04:21:34;;;;;;;;;;;;;;;;;;1905700;28;7089;-67
2022/04/27 04:22:31;;;;;;;;;;;;;;;;;;1905538;28;7042;-67
2022/04/27 04:23:29;;;;;;;;;;;;;;;;;;1913172;28;7156;-70
2022/04/27 04:24:27;;;;;;;;;;;;;;;;;;1912849;28;7104;-68
2022/04/27 04:29:14;;;;;;;;;;;;;;;;;;1905226;28;7097;-70
2022/04/27 04:30:12;;;;;;;;;;;;;;;;;;1906227;28;7018;-67
2022/04/27 04:31:09;;;;;;;;;;;;;;;;;;1905769;28;7389;-68
2022/04/27 04:32:07;;;;;;;;;;;;;;;;;;1904320;28;8992;-70
2022/04/27 04:33:05;;;;;;;;;;;;;;;;;;1905490;28;7308;-68
2022/04/27 04:34:04;;;;;;;;;;;;;;;;;;1905193;28;7006;-70
2022/04/27 04:35:01;;;;;;;;;;;;;;;;;;1897470;28;7001;-69
2022/04/27 04:35:59;;;;;;;;;;;;;;;;;;1897518;28;7333;-67
2022/04/27 04:36:56;;;;;;;;;;;;;;;;;;1904721;28;7002;-68
2022/04/27 04:37:54;;;;;;;;;;;;;;;;;;1905762;28;8338;-67
2022/04/27 04:38:52;;;;;;;;;;;;;;;;;;1897162;28;7915;-67
2022/04/27 04:39:49;;;;;;;;;;;;;;;;;;1897611;28;7021;-70
2022/04/27 04:40:52;;;;;;;;;;;;;;;;;;1903741;28;7185;-66
2022/04/27 04:41:50;;;;;;;;;;;;;;;;;;1905244;28;7109;-69
2022/04/27 04:42:47;;;;;;;;;;;;;;;;;;1905196;28;7005;-69
2022/04/27 04:43:44;;;;;;;;;;;;;;;;;;1905427;28;7776;-69
2022/04/27 04:44:42;;;;;;;;;;;;;;;;;;1905304;28;7009;-69
2022/04/27 04:45:39;;;;;;;;;;;;;;;;;;1905625;28;7050;-66
2022/04/27 04:46:37;;;;;;;;;;;;;;;;;;1905828;28;7013;-69
2022/04/27 04:47:34;;;;;;;;;;;;;;;;;;1904574;28;7009;-68
2022/04/27 04:48:31;;;;;;;;;;;;;;;;;;1905285;28;7054;-69
2022/04/27 04:49:29;;;;;;;;;;;;;;;;;;1904952;28;7050;-69
2022/04/27 04:50:26;;;;;;;;;;;;;;;;;;1905874;28;7057;-66
2022/04/27 04:51:24;;;;;;;;;;;;;;;;;;1905536;28;7038;-69
2022/04/27 04:52:32;;;;;;;;;;;;;;;;;;1905633;28;7134;-68
2022/04/27 04:53:30;;;;;;;;;;;;;;;;;;1905522;28;7013;-70
2022/04/27 04:54:27;;;;;;;;;;;;;;;;;;1905365;28;7100;-70
2022/04/27 04:55:25;;;;;;;;;;;;;;;;;;1905250;28;7009;-66
2022/04/27 04:56:22;;;;;;;;;;;;;;;;;;1905418;28;7006;-69
2022/04/27 04:57:20;;;;;;;;;;;;;;;;;;1905022;28;7005;-67
2022/04/27 04:58:17;;;;;;;;;;;;;;;;;;1905116;28;7092;-69
2022/04/27 04:59:14;;;;;;;;;;;;;;;;;;1905593;28;7025;-68
2022/04/27 05:00:12;;;;;;;;;;;;;;;;;;1905332;28;8043;-68
2022/04/27 05:01:09;;;;;;;;;;;;;;;;;;1904219;28;7026;-68
2022/04/27 05:02:07;;;;;;;;;;;;;;;;;;1904251;28;7009;-68
2022/04/27 05:03:05;;;;;;;;;;;;;;;;;;1905179;28;7056;-67
2022/04/27 05:04:02;;;;;;;;;;;;;;;;;;1904907;28;7096;-71
2022/04/27 05:05:03;;;;;;;;;;;;;;;;;;1905035;28;7116;-67
2022/04/27 05:06:01;;;;;;;;;;;;;;;;;;1904926;28;7315;-71
2022/04/27 05:06:58;;;;;;;;;;;;;;;;;;1905567;28;8084;-68
2022/04/27 05:07:55;;;;;;;;;;;;;;;;;;1905158;28;7108;-69
2022/04/27 05:08:53;;;;;;;;;;;;;;;;;;1897063;28;7149;-69
2022/04/27 05:09:50;;;;;;;;;;;;;;;;;;1896818;28;7050;-69
2022/04/27 05:10:48;;;;;;;;;;;;;;;;;;1903918;28;7097;-70
2022/04/27 05:11:45;;;;;;;;;;;;;;;;;;1903897;28;7046;-66
2022/04/27 05:12:43;;;;;;;;;;;;;;;;;;1905678;28;7709;-71
2022/04/27 05:13:40;;;;;;;;;;;;;;;;;;1905253;28;7010;-70
2022/04/27 05:14:37;;;;;;;;;;;;;;;;;;1905094;28;7093;-68
2022/04/27 05:15:35;;;;;;;;;;;;;;;;;;1904805;28;7001;-67
2022/04/27 05:16:33;;;;;;;;;;;;;;;;;;1904550;28;7031;-69
2022/04/27 05:17:36;;;;;;;;;;;;;;;;;;1904946;28;8108;-67
2022/04/27 05:18:33;;;;;;;;;;;;;;;;;;1904606;28;7120;-68
2022/04/27 05:19:31;;;;;;;;;;;;;;;;;;1904801;28;7109;-70
2022/04/27 05:20:28;;;;;;;;;;;;;;;;;;1911972;28;7128;-69
2022/04/27 05:21:26;;;;;;;;;;;;;;;;;;1911929;28;7042;-68
2022/04/27 05:22:23;;;;;;;;;;;;;;;;;;1905991;28;7097;-70
2022/04/27 05:23:20;;;;;;;;;;;;;;;;;;1905465;28;7022;-70
2022/04/27 05:24:18;;;;;;;;;;;;;;;;;;1904768;28;7382;-68
2022/04/27 05:25:15;;;;;;;;;;;;;;;;;;1905199;28;7029;-68
2022/04/27 05:26:17;;;;;;;;;;;;;;;;;;1904830;28;7089;-67
2022/04/27 05:27:15;;;;;;;;;;;;;;;;;;1906066;28;7046;-70
2022/04/27 05:28:13;;;;;;;;;;;;;;;;;;1905376;28;7152;-69
2022/04/27 05:32:00;;;;;;;;;;;;;;;;;;1905702;28;7105;-67
2022/04/27 05:32:58;;;;;;;;;;;;;;;;;;1905375;28;7002;-70
2022/04/27 05:33:55;;;;;;;;;;;;;;;;;;1905441;28;7097;-68
2022/04/27 05:34:53;;;;;;;;;;;;;;;;;;1905048;28;7001;-67
2022/04/27 05:35:50;;;;;;;;;;;;;;;;;;1905330;28;7006;-68
2022/04/27 05:36:48;;;;;;;;;;;;;;;;;;1905409;28;7009;-70
2022/04/27 05:37:46;;;;;;;;;;;;;;;;;;1903879;28;7323;-69
2022/04/27 05:38:43;;;;;;;;;;;;;;;;;;1904779;28;7084;-66
2022/04/27 05:39:40;;;;;;;;;;;;;;;;;;1904900;28;7070;-68
2022/04/27 05:40:43;;;;;;;;;;;;;;;;;;1906187;28;7029;-68
2022/04/27 05:41:41;;;;;;;;;;;;;;;;;;1905796;28;8056;-69
2022/04/27 05:42:39;;;;;;;;;;;;;;;;;;1904852;28;7316;-70
2022/04/27 05:43:37;;;;;;;;;;;;;;;;;;1905118;28;7155;-67
2022/04/27 05:44:34;;;;;;;;;;;;;;;;;;1904948;28;7005;-69
2022/04/27 05:45:32;;;;;;;;;;;;;;;;;;1905089;28;7383;-68
2022/04/27 05:46:30;;;;;;;;;;;;;;;;;;1904997;28;7137;-68
2022/04/27 05:47:27;;;;;;;;;;;;;;;;;;1905275;28;7005;-68
2022/04/27 05:48:25;;;;;;;;;;;;;;;;;;1904704;28;7046;-70
2022/04/27 05:49:22;;;;;;;;;;;;;;;;;;1902943;28;7157;-68
2022/04/27 05:50:19;;;;;;;;;;;;;;;;;;1904814;28;7105;-69
2022/04/27 05:51:17;;;;;;;;;;;;;;;;;;1904659;28;7022;-69
2022/04/27 05:52:14;;;;;;;;;;;;;;;;;;1904888;28;7010;-67
2022/04/27 05:53:11;;;;;;;;;;;;;;;;;;1904690;28;7005;-69
2022/04/27 05:54:09;;;;;;;;;;;;;;;;;;1904886;28;7002;-66
2022/04/27 05:55:07;;;;;;;;;;;;;;;;;;1907194;28;7556;-67
2022/04/27 05:56:04;;;;;;;;;;;;;;;;;;1905013;28;8040;-70
2022/04/27 05:57:02;;;;;;;;;;;;;;;;;;1897484;28;7038;-68
2022/04/27 05:57:59;;;;;;;;;;;;;;;;;;1901331;28;7006;-70
2022/04/27 05:58:57;;;;;;;;;;;;;;;;;;1897799;28;7092;-68
2022/04/27 05:59:54;;;;;;;;;;;;;;;;;;1897443;28;7010;-69
2022/04/27 06:00:52;;;;;;;;;;;;;;;;;;1897192;28;7038;-68
2022/04/27 06:01:50;;;;;;;;;;;;;;;;;;1897965;28;7092;-70
2022/04/27 06:02:51;;;;;;;;;;;;;;;;;;1897809;28;7018;-67
2022/04/27 06:03:49;;;;;;;;;;;;;;;;;;1897517;28;7018;-67
2022/04/27 06:04:47;;;;;;;;;;;;;;;;;;1901598;28;8055;-69
2022/04/27 06:05:44;;;;;;;;;;;;;;;;;;1904261;28;7135;-65
2022/04/27 06:06:42;;;;;;;;;;;;;;;;;;1902191;28;7009;-69
2022/04/27 06:07:39;;;;;;;;;;;;;;;;;;1897456;28;7038;-68
2022/04/27 06:08:37;;;;;;;;;;;;;;;;;;1897447;28;7117;-67
2022/04/27 06:09:34;;;;;;;;;;;;;;;;;;1898103;28;7009;-68
2022/04/27 06:10:32;;;;;;;;;;;;;;;;;;1903563;28;7096;-69
2022/04/27 06:11:29;;;;;;;;;;;;;;;;;;1904704;28;7010;-70
2022/04/27 06:12:34;;;;;;;;;;;;;;;;;;1899244;28;7010;-67
2022/04/27 06:13:31;;;;;;;;;;;;;;;;;;1897240;28;7034;-70
2022/04/27 06:14:29;;;;;;;;;;;;;;;;;;1896949;28;7006;-70
2022/04/27 06:15:26;;;;;;;;;;;;;;;;;;1904542;28;7108;-69
2022/04/27 06:16:24;;;;;;;;;;;;;;;;;;1905219;28;8100;-68
2022/04/27 06:17:22;;;;;;;;;;;;;;;;;;1905380;28;7120;-70
2022/04/27 06:18:19;;;;;;;;;;;;;;;;;;1903103;28;8052;-69
2022/04/27 06:19:17;;;;;;;;;;;;;;;;;;1904685;28;7005;-67
2022/04/27 06:20:14;;;;;;;;;;;;;;;;;;1904677;28;7042;-69
2022/04/27 06:21:11;;;;;;;;;;;;;;;;;;1903665;28;7343;-68
2022/04/27 06:22:09;;;;;;;;;;;;;;;;;;1897671;28;7196;-69
2022/04/27 06:23:07;;;;;;;;;;;;;;;;;;1896550;28;7278;-70
2022/04/27 06:24:06;;;;;;;;;;;;;;;;;;1896898;28;7006;-69
2022/04/27 06:25:04;;;;;;;;;;;;;;;;;;1903135;28;7197;-69
2022/04/27 06:26:02;;;;;;;;;;;;;;;;;;1904429;28;7054;-70
2022/04/27 06:27:00;;;;;;;;;;;;;;;;;;1904716;28;7124;-70
2022/04/27 06:27:57;;;;;;;;;;;;;;;;;;1897860;28;7009;-68
2022/04/27 06:28:56;;;;;;;;;;;;;;;;;;1896615;28;7006;-67
2022/04/27 06:29:53;;;;;;;;;;;;;;;;;;1897336;28;7014;-68
2022/04/27 06:30:51;;;;;;;;;;;;;;;;;;1895604;28;7092;-67
2022/04/27 06:31:48;;;;;;;;;;;;;;;;;;1896870;28;7097;-69
2022/04/27 06:32:46;;;;;;;;;;;;;;;;;;1896663;28;8092;-71
2022/04/27 06:33:43;;;;;;;;;;;;;;;;;;1896478;28;7316;-69
2022/04/27 06:34:41;;;;;;;;;;;;;;;;;;1897005;28;7142;-67
2022/04/27 06:35:40;;;;;;;;;;;;;;;;;;1896485;28;7005;-67
2022/04/27 06:36:39;;;;;;;;;;;;;;;;;;1887694;28;7379;-70
2022/04/27 06:37:36;;;;;;;;;;;;;;;;;;1896008;28;7042;-68
2022/04/27 06:38:33;;;;;;;;;;;;;;;;;;1903876;28;7046;-68
2022/04/27 06:39:38;;;;;;;;;;;;;;;;;;1904353;28;7010;-69
2022/04/27 06:40:35;;;;;;;;;;;;;;;;;;1902138;28;7006;-70
2022/04/27 06:41:33;;;;;;;;;;;;;;;;;;1901624;28;7006;-70
2022/04/27 06:42:30;;;;;;;;;;;;;;;;;;1897244;28;7089;-70
2022/04/27 06:43:27;;;;;;;;;;;;;;;;;;1897317;28;7010;-67
2022/04/27 06:44:25;;;;;;;;;;;;;;;;;;1896993;28;7013;-69
2022/04/27 06:45:27;;;;;;;;;;;;;;;;;;1897108;28;7128;-70
2022/04/27 06:46:25;;;;;;;;;;;;;;;;;;1897205;28;7013;-68
2022/04/27 06:47:22;;;;;;;;;;;;;;;;;;1896882;28;7014;-67
2022/04/27 06:48:19;;;;;;;;;;;;;;;;;;1896715;28;7153;-68
2022/04/27 06:49:17;;;;;;;;;;;;;;;;;;1897589;28;7006;-67
2022/04/27 06:50:16;;;;;;;;;;;;;;;;;;1904353;28;7124;-70
2022/04/27 06:51:13;;;;;;;;;;;;;;;;;;1899996;28;7029;-67
2022/04/27 06:52:11;;;;;;;;;;;;;;;;;;1897234;28;8392;-69
2022/04/27 06:53:09;;;;;;;;;;;;;;;;;;1896153;28;7010;-69
2022/04/27 06:54:06;;;;;;;;;;;;;;;;;;1896634;28;7200;-68
2022/04/27 06:55:04;;;;;;;;;;;;;;;;;;1896686;28;7096;-68
2022/04/27 06:56:01;;;;;;;;;;;;;;;;;;1896958;28;7089;-70